sensor_id;sensor_type;location;lat;lon;timestamp;temperature;humidity
12166;DHT22;6146;48.128;11.476;2023-06-04T00:01:40;14.20;99.90
12166;DHT22;6146;48.128;11.476;2023-06-04T00:04:06;14.40;99.90
12166;DHT22;6146;48.128;11.476;2023-06-04T00:06:31;14.50;99.90
12166;DHT22;6146;48.128;11.476;2023-06-04T00:08:57;14.50;99.90
12166;DHT22;6146;48.128;11.476;2023-06-04T00:11:22;14.60;99.90
12166;DHT22;6146;48.128;11.476;2023-06-04T00:13:48;14.60;99.90
12166;DHT22;6146;48.128;11.476;2023-06-04T00:16:14;14.70;99.90
12166;DHT22;6146;48.128;11.476;2023-06-04T00:18:39;14.60;99.90
12166;DHT22;6146;48.128;11.476;2023-06-04T00:21:05;14.60;99.90
12166;DHT22;6146;48.128;11.476;2023-06-04T00:23:30;14.60;99.90
12166;DHT22;6146;48.128;11.476;2023-06-04T00:25:56;14.70;99.90
12166;DHT22;6146;48.128;11.476;2023-06-04T00:28:21;14.60;99.90
12166;DHT22;6146;48.128;11.476;2023-06-04T00:30:47;14.60;99.90
12166;DHT22;6146;48.128;11.476;2023-06-04T00:33:13;14.70;99.90
12166;DHT22;6146;48.128;11.476;2023-06-04T00:35:38;14.60;99.90
12166;DHT22;6146;48.128;11.476;2023-06-04T00:38:04;14.60;99.90
12166;DHT22;6146;48.128;11.476;2023-06-04T00:40:29;14.60;99.90
12166;DHT22;6146;48.128;11.476;2023-06-04T00:42:55;14.70;99.90
12166;DHT22;6146;48.128;11.476;2023-06-04T00:45:21;14.70;99.90
12166;DHT22;6146;48.128;11.476;2023-06-04T00:47:46;14.70;99.90
12166;DHT22;6146;48.128;11.476;2023-06-04T00:50:13;14.70;99.90
12166;DHT22;6146;48.128;11.476;2023-06-04T00:52:39;14.70;99.90
12166;DHT22;6146;48.128;11.476;2023-06-04T00:55:05;14.60;99.90
12166;DHT22;6146;48.128;11.476;2023-06-04T00:57:31;14.60;99.90
12166;DHT22;6146;48.128;11.476;2023-06-04T00:59:57;14.50;99.90
12166;DHT22;6146;48.128;11.476;2023-06-04T01:02:23;14.50;99.90
12166;DHT22;6146;48.128;11.476;2023-06-04T01:07:36;14.40;99.90
12166;DHT22;6146;48.128;11.476;2023-06-04T01:10:02;14.30;99.90
12166;DHT22;6146;48.128;11.476;2023-06-04T01:12:28;14.30;99.90
12166;DHT22;6146;48.128;11.476;2023-06-04T01:14:53;14.30;99.90
12166;DHT22;6146;48.128;11.476;2023-06-04T01:17:23;14.30;99.90
12166;DHT22;6146;48.128;11.476;2023-06-04T01:20:13;14.20;99.90
12166;DHT22;6146;48.128;11.476;2023-06-04T01:22:43;14.10;99.90
12166;DHT22;6146;48.128;11.476;2023-06-04T01:25:21;14.00;99.90
12166;DHT22;6146;48.128;11.476;2023-06-04T01:27:49;14.00;99.90
12166;DHT22;6146;48.128;11.476;2023-06-04T01:30:29;13.90;99.90
12166;DHT22;6146;48.128;11.476;2023-06-04T01:32:56;13.80;99.90
12166;DHT22;6146;48.128;11.476;2023-06-04T01:35:22;13.70;99.90
12166;DHT22;6146;48.128;11.476;2023-06-04T01:37:48;13.70;99.90
12166;DHT22;6146;48.128;11.476;2023-06-04T01:40:14;13.70;99.90
12166;DHT22;6146;48.128;11.476;2023-06-04T01:42:41;13.60;99.90
12166;DHT22;6146;48.128;11.476;2023-06-04T01:45:07;13.60;99.90
12166;DHT22;6146;48.128;11.476;2023-06-04T01:47:33;13.50;99.90
12166;DHT22;6146;48.128;11.476;2023-06-04T01:50:00;13.40;99.90
12166;DHT22;6146;48.128;11.476;2023-06-04T01:52:25;13.40;99.90
12166;DHT22;6146;48.128;11.476;2023-06-04T01:54:52;13.20;99.90
12166;DHT22;6146;48.128;11.476;2023-06-04T01:57:18;13.20;99.90
12166;DHT22;6146;48.128;11.476;2023-06-04T01:59:44;13.10;99.90
12166;DHT22;6146;48.128;11.476;2023-06-04T02:02:10;13.00;99.90
12166;DHT22;6146;48.128;11.476;2023-06-04T02:04:36;13.00;99.90
12166;DHT22;6146;48.128;11.476;2023-06-04T02:07:02;12.90;99.90
12166;DHT22;6146;48.128;11.476;2023-06-04T02:09:28;12.80;99.90
12166;DHT22;6146;48.128;11.476;2023-06-04T02:11:53;12.80;99.90
12166;DHT22;6146;48.128;11.476;2023-06-04T02:14:19;12.70;99.90
12166;DHT22;6146;48.128;11.476;2023-06-04T02:16:45;12.60;99.90
12166;DHT22;6146;48.128;11.476;2023-06-04T02:19:15;12.60;99.90
12166;DHT22;6146;48.128;11.476;2023-06-04T02:21:40;12.50;99.90
12166;DHT22;6146;48.128;11.476;2023-06-04T02:24:06;12.50;99.90
12166;DHT22;6146;48.128;11.476;2023-06-04T02:26:31;12.50;99.90
12166;DHT22;6146;48.128;11.476;2023-06-04T02:28:57;12.40;99.90
12166;DHT22;6146;48.128;11.476;2023-06-04T02:31:23;12.40;99.90
12166;DHT22;6146;48.128;11.476;2023-06-04T02:33:48;12.30;99.90
12166;DHT22;6146;48.128;11.476;2023-06-04T02:36:14;12.30;99.90
12166;DHT22;6146;48.128;11.476;2023-06-04T02:38:42;12.30;99.90
12166;DHT22;6146;48.128;11.476;2023-06-04T02:41:08;12.20;99.90
12166;DHT22;6146;48.128;11.476;2023-06-04T02:43:33;12.10;99.90
12166;DHT22;6146;48.128;11.476;2023-06-04T02:45:59;12.10;99.90
12166;DHT22;6146;48.128;11.476;2023-06-04T02:48:24;12.00;99.90
12166;DHT22;6146;48.128;11.476;2023-06-04T02:50:50;12.00;99.90
12166;DHT22;6146;48.128;11.476;2023-06-04T02:53:16;12.00;99.90
12166;DHT22;6146;48.128;11.476;2023-06-04T02:55:41;11.90;99.90
12166;DHT22;6146;48.128;11.476;2023-06-04T02:58:07;11.90;99.90
12166;DHT22;6146;48.128;11.476;2023-06-04T03:00:34;11.90;99.90
12166;DHT22;6146;48.128;11.476;2023-06-04T03:02:59;11.80;99.90
12166;DHT22;6146;48.128;11.476;2023-06-04T03:05:27;11.80;99.90
12166;DHT22;6146;48.128;11.476;2023-06-04T03:07:53;11.70;99.90
12166;DHT22;6146;48.128;11.476;2023-06-04T03:10:19;11.70;99.90
12166;DHT22;6146;48.128;11.476;2023-06-04T03:12:44;11.70;99.90
12166;DHT22;6146;48.128;11.476;2023-06-04T03:15:10;11.60;99.90
12166;DHT22;6146;48.128;11.476;2023-06-04T03:17:36;11.50;99.90
12166;DHT22;6146;48.128;11.476;2023-06-04T03:20:02;11.50;99.90
12166;DHT22;6146;48.128;11.476;2023-06-04T03:22:29;11.50;99.90
12166;DHT22;6146;48.128;11.476;2023-06-04T03:24:55;11.50;99.90
12166;DHT22;6146;48.128;11.476;2023-06-04T03:27:21;11.30;99.90
12166;DHT22;6146;48.128;11.476;2023-06-04T03:29:46;11.50;99.90
12166;DHT22;6146;48.128;11.476;2023-06-04T03:32:13;11.40;99.90
12166;DHT22;6146;48.128;11.476;2023-06-04T03:34:39;11.40;99.90
12166;DHT22;6146;48.128;11.476;2023-06-04T03:37:06;11.40;99.90
12166;DHT22;6146;48.128;11.476;2023-06-04T03:39:31;11.40;99.90
12166;DHT22;6146;48.128;11.476;2023-06-04T03:41:57;11.40;99.90
12166;DHT22;6146;48.128;11.476;2023-06-04T03:44:22;11.50;99.90
12166;DHT22;6146;48.128;11.476;2023-06-04T03:46:48;11.50;99.90
12166;DHT22;6146;48.128;11.476;2023-06-04T03:49:14;11.50;99.90
12166;DHT22;6146;48.128;11.476;2023-06-04T03:51:41;11.50;99.90
12166;DHT22;6146;48.128;11.476;2023-06-04T03:54:06;11.50;99.90
12166;DHT22;6146;48.128;11.476;2023-06-04T03:56:32;11.50;99.90
12166;DHT22;6146;48.128;11.476;2023-06-04T03:58:58;11.60;99.90
12166;DHT22;6146;48.128;11.476;2023-06-04T04:01:24;11.60;99.90
12166;DHT22;6146;48.128;11.476;2023-06-04T04:03:50;11.70;99.90
12166;DHT22;6146;48.128;11.476;2023-06-04T04:06:17;11.70;99.90
12166;DHT22;6146;48.128;11.476;2023-06-04T04:08:42;11.80;99.90
12166;DHT22;6146;48.128;11.476;2023-06-04T04:11:10;11.80;99.90
12166;DHT22;6146;48.128;11.476;2023-06-04T04:13:35;11.90;99.90
12166;DHT22;6146;48.128;11.476;2023-06-04T04:16:01;11.90;99.90
12166;DHT22;6146;48.128;11.476;2023-06-04T04:18:26;12.00;99.90
12166;DHT22;6146;48.128;11.476;2023-06-04T04:20:52;12.00;99.90
12166;DHT22;6146;48.128;11.476;2023-06-04T04:23:18;12.10;99.90
12166;DHT22;6146;48.128;11.476;2023-06-04T04:25:44;12.20;99.90
12166;DHT22;6146;48.128;11.476;2023-06-04T04:28:09;12.40;99.90
12166;DHT22;6146;48.128;11.476;2023-06-04T04:30:35;12.50;99.90
12166;DHT22;6146;48.128;11.476;2023-06-04T04:33:01;12.70;99.90
12166;DHT22;6146;48.128;11.476;2023-06-04T04:35:27;12.90;99.90
12166;DHT22;6146;48.128;11.476;2023-06-04T04:37:54;13.20;99.90
12166;DHT22;6146;48.128;11.476;2023-06-04T04:40:20;14.10;99.90
12166;DHT22;6146;48.128;11.476;2023-06-04T04:42:46;15.60;99.90
12166;DHT22;6146;48.128;11.476;2023-06-04T04:45:11;17.20;99.90
12166;DHT22;6146;48.128;11.476;2023-06-04T04:47:37;18.60;99.90
12166;DHT22;6146;48.128;11.476;2023-06-04T04:50:03;19.70;99.90
12166;DHT22;6146;48.128;11.476;2023-06-04T04:52:29;20.80;97.30
12166;DHT22;6146;48.128;11.476;2023-06-04T04:54:55;21.60;93.60
12166;DHT22;6146;48.128;11.476;2023-06-04T04:57:23;22.40;90.90
12166;DHT22;6146;48.128;11.476;2023-06-04T04:59:48;23.50;86.00
12166;DHT22;6146;48.128;11.476;2023-06-04T05:02:14;23.80;81.50
12166;DHT22;6146;48.128;11.476;2023-06-04T05:04:40;24.20;79.40
12166;DHT22;6146;48.128;11.476;2023-06-04T05:07:06;24.70;74.50
12166;DHT22;6146;48.128;11.476;2023-06-04T05:09:31;24.70;72.00
12166;DHT22;6146;48.128;11.476;2023-06-04T05:11:57;25.10;69.50
12166;DHT22;6146;48.128;11.476;2023-06-04T05:14:23;24.70;69.70
12166;DHT22;6146;48.128;11.476;2023-06-04T05:16:48;24.70;69.00
12166;DHT22;6146;48.128;11.476;2023-06-04T05:19:16;24.70;65.90
12166;DHT22;6146;48.128;11.476;2023-06-04T05:21:42;24.60;68.10
12166;DHT22;6146;48.128;11.476;2023-06-04T05:24:09;24.40;64.10
12166;DHT22;6146;48.128;11.476;2023-06-04T05:26:35;24.50;62.80
12166;DHT22;6146;48.128;11.476;2023-06-04T05:29:01;24.40;61.00
12166;DHT22;6146;48.128;11.476;2023-06-04T05:31:29;24.50;60.50
12166;DHT22;6146;48.128;11.476;2023-06-04T05:33:58;24.80;60.30
12166;DHT22;6146;48.128;11.476;2023-06-04T05:36:27;25.30;59.10
12166;DHT22;6146;48.128;11.476;2023-06-04T05:38:53;25.60;57.60
12166;DHT22;6146;48.128;11.476;2023-06-04T05:41:23;26.00;55.70
12166;DHT22;6146;48.128;11.476;2023-06-04T05:43:49;25.90;55.10
12166;DHT22;6146;48.128;11.476;2023-06-04T05:46:15;26.30;55.30
12166;DHT22;6146;48.128;11.476;2023-06-04T05:48:41;27.60;54.50
12166;DHT22;6146;48.128;11.476;2023-06-04T05:51:06;28.20;50.90
12166;DHT22;6146;48.128;11.476;2023-06-04T05:53:32;28.60;50.00
12166;DHT22;6146;48.128;11.476;2023-06-04T05:55:58;28.90;49.00
12166;DHT22;6146;48.128;11.476;2023-06-04T05:58:24;29.60;47.50
12166;DHT22;6146;48.128;11.476;2023-06-04T06:00:51;30.50;45.90
12166;DHT22;6146;48.128;11.476;2023-06-04T06:03:16;30.90;43.70
12166;DHT22;6146;48.128;11.476;2023-06-04T06:05:45;31.10;42.90
12166;DHT22;6146;48.128;11.476;2023-06-04T06:08:10;30.60;44.30
12166;DHT22;6146;48.128;11.476;2023-06-04T06:10:36;30.30;44.40
12166;DHT22;6146;48.128;11.476;2023-06-04T06:13:02;30.80;43.50
12166;DHT22;6146;48.128;11.476;2023-06-04T06:15:27;31.30;42.20
12166;DHT22;6146;48.128;11.476;2023-06-04T06:17:54;31.80;41.00
12166;DHT22;6146;48.128;11.476;2023-06-04T06:20:20;32.10;41.00
12166;DHT22;6146;48.128;11.476;2023-06-04T06:22:47;32.40;40.90
12166;DHT22;6146;48.128;11.476;2023-06-04T06:25:13;33.20;39.00
12166;DHT22;6146;48.128;11.476;2023-06-04T06:27:41;33.40;39.30
12166;DHT22;6146;48.128;11.476;2023-06-04T06:30:08;33.50;37.40
12166;DHT22;6146;48.128;11.476;2023-06-04T06:32:34;32.90;38.90
12166;DHT22;6146;48.128;11.476;2023-06-04T06:35:00;32.80;38.10
12166;DHT22;6146;48.128;11.476;2023-06-04T06:37:26;33.10;37.30
12166;DHT22;6146;48.128;11.476;2023-06-04T06:39:52;33.00;38.40
12166;DHT22;6146;48.128;11.476;2023-06-04T06:42:17;32.60;38.60
12166;DHT22;6146;48.128;11.476;2023-06-04T06:44:46;32.40;37.80
12166;DHT22;6146;48.128;11.476;2023-06-04T06:47:12;31.70;38.50
12166;DHT22;6146;48.128;11.476;2023-06-04T06:49:40;32.00;38.50
12166;DHT22;6146;48.128;11.476;2023-06-04T06:52:05;31.30;39.20
12166;DHT22;6146;48.128;11.476;2023-06-04T06:54:31;30.80;39.50
12166;DHT22;6146;48.128;11.476;2023-06-04T06:56:56;30.60;39.60
12166;DHT22;6146;48.128;11.476;2023-06-04T06:59:23;31.00;40.90
12166;DHT22;6146;48.128;11.476;2023-06-04T07:01:49;32.00;38.70
12166;DHT22;6146;48.128;11.476;2023-06-04T07:04:15;32.40;37.40
12166;DHT22;6146;48.128;11.476;2023-06-04T07:06:41;32.70;38.20
12166;DHT22;6146;48.128;11.476;2023-06-04T07:09:07;33.50;37.30
12166;DHT22;6146;48.128;11.476;2023-06-04T07:11:33;34.00;36.30
12166;DHT22;6146;48.128;11.476;2023-06-04T07:13:59;34.90;35.40
12166;DHT22;6146;48.128;11.476;2023-06-04T07:16:27;35.50;35.10
12166;DHT22;6146;48.128;11.476;2023-06-04T07:18:52;34.70;34.20
12166;DHT22;6146;48.128;11.476;2023-06-04T07:21:18;33.90;36.30
12166;DHT22;6146;48.128;11.476;2023-06-04T07:23:46;34.20;35.00
12166;DHT22;6146;48.128;11.476;2023-06-04T07:26:15;34.60;33.90
12166;DHT22;6146;48.128;11.476;2023-06-04T07:28:41;33.10;35.00
12166;DHT22;6146;48.128;11.476;2023-06-04T07:31:06;32.60;36.40
12166;DHT22;6146;48.128;11.476;2023-06-04T07:33:32;32.30;36.70
12166;DHT22;6146;48.128;11.476;2023-06-04T07:35:58;32.20;37.90
12166;DHT22;6146;48.128;11.476;2023-06-04T07:38:23;32.90;37.00
12166;DHT22;6146;48.128;11.476;2023-06-04T07:40:49;33.70;36.10
12166;DHT22;6146;48.128;11.476;2023-06-04T07:43:15;34.60;34.90
12166;DHT22;6146;48.128;11.476;2023-06-04T07:45:40;34.80;34.90
12166;DHT22;6146;48.128;11.476;2023-06-04T07:48:06;35.20;33.40
12166;DHT22;6146;48.128;11.476;2023-06-04T07:50:31;35.70;31.90
12166;DHT22;6146;48.128;11.476;2023-06-04T07:52:57;33.90;34.00
12166;DHT22;6146;48.128;11.476;2023-06-04T07:55:22;32.80;36.00
12166;DHT22;6146;48.128;11.476;2023-06-04T07:57:48;33.40;36.80
12166;DHT22;6146;48.128;11.476;2023-06-04T08:00:14;34.10;35.40
12166;DHT22;6146;48.128;11.476;2023-06-04T08:02:40;34.70;34.80
12166;DHT22;6146;48.128;11.476;2023-06-04T08:05:05;35.20;34.40
12166;DHT22;6146;48.128;11.476;2023-06-04T08:07:31;36.10;33.40
12166;DHT22;6146;48.128;11.476;2023-06-04T08:09:57;36.90;32.10
12166;DHT22;6146;48.128;11.476;2023-06-04T08:12:22;36.90;32.20
12166;DHT22;6146;48.128;11.476;2023-06-04T08:14:48;36.60;32.40
12166;DHT22;6146;48.128;11.476;2023-06-04T08:17:15;36.80;31.50
12166;DHT22;6146;48.128;11.476;2023-06-04T08:19:41;36.70;31.20
12166;DHT22;6146;48.128;11.476;2023-06-04T08:22:06;35.70;32.40
12166;DHT22;6146;48.128;11.476;2023-06-04T08:24:32;34.90;34.30
12166;DHT22;6146;48.128;11.476;2023-06-04T08:26:58;35.70;33.50
12166;DHT22;6146;48.128;11.476;2023-06-04T08:29:23;36.40;32.60
12166;DHT22;6146;48.128;11.476;2023-06-04T08:31:49;37.40;30.70
12166;DHT22;6146;48.128;11.476;2023-06-04T08:34:14;35.60;31.90
12166;DHT22;6146;48.128;11.476;2023-06-04T08:36:40;34.50;33.40
12166;DHT22;6146;48.128;11.476;2023-06-04T08:39:06;34.80;33.40
12166;DHT22;6146;48.128;11.476;2023-06-04T08:44:05;32.50;35.70
12166;DHT22;6146;48.128;11.476;2023-06-04T08:46:32;32.00;37.20
12166;DHT22;6146;48.128;11.476;2023-06-04T08:49:00;33.00;36.50
12166;DHT22;6146;48.128;11.476;2023-06-04T08:51:28;33.60;35.00
12166;DHT22;6146;48.128;11.476;2023-06-04T08:53:58;33.90;33.50
12166;DHT22;6146;48.128;11.476;2023-06-04T08:56:24;33.70;34.80
12166;DHT22;6146;48.128;11.476;2023-06-04T08:58:51;34.40;34.40
12166;DHT22;6146;48.128;11.476;2023-06-04T09:01:18;34.80;33.70
12166;DHT22;6146;48.128;11.476;2023-06-04T09:03:44;35.00;33.20
12166;DHT22;6146;48.128;11.476;2023-06-04T09:06:11;34.00;34.40
12166;DHT22;6146;48.128;11.476;2023-06-04T09:08:39;33.00;35.20
12166;DHT22;6146;48.128;11.476;2023-06-04T09:11:10;32.50;36.90
12166;DHT22;6146;48.128;11.476;2023-06-04T09:13:37;33.00;36.90
12166;DHT22;6146;48.128;11.476;2023-06-04T09:16:05;33.90;35.00
12166;DHT22;6146;48.128;11.476;2023-06-04T09:18:33;33.80;34.90
12166;DHT22;6146;48.128;11.476;2023-06-04T09:21:06;32.60;36.20
12166;DHT22;6146;48.128;11.476;2023-06-04T09:23:43;31.90;38.00
12166;DHT22;6146;48.128;11.476;2023-06-04T09:26:09;33.00;36.60
12166;DHT22;6146;48.128;11.476;2023-06-04T09:28:39;34.30;34.80
12166;DHT22;6146;48.128;11.476;2023-06-04T09:31:08;34.60;34.00
12166;DHT22;6146;48.128;11.476;2023-06-04T09:33:42;34.60;34.50
12166;DHT22;6146;48.128;11.476;2023-06-04T09:36:08;35.10;32.80
12166;DHT22;6146;48.128;11.476;2023-06-04T09:38:35;34.90;32.90
12166;DHT22;6146;48.128;11.476;2023-06-04T09:41:00;34.80;34.00
12166;DHT22;6146;48.128;11.476;2023-06-04T09:43:30;34.60;33.80
12166;DHT22;6146;48.128;11.476;2023-06-04T09:45:55;35.40;33.00
12166;DHT22;6146;48.128;11.476;2023-06-04T09:48:22;36.00;31.80
12166;DHT22;6146;48.128;11.476;2023-06-04T09:50:48;34.80;32.80
12166;DHT22;6146;48.128;11.476;2023-06-04T09:53:18;33.30;34.40
12166;DHT22;6146;48.128;11.476;2023-06-04T09:56:07;32.70;36.40
12166;DHT22;6146;48.128;11.476;2023-06-04T09:58:34;32.70;36.20
12166;DHT22;6146;48.128;11.476;2023-06-04T10:01:02;33.10;34.40
12166;DHT22;6146;48.128;11.476;2023-06-04T10:03:35;32.40;35.40
12166;DHT22;6146;48.128;11.476;2023-06-04T10:06:04;32.30;35.80
12166;DHT22;6146;48.128;11.476;2023-06-04T10:08:31;33.40;33.40
12166;DHT22;6146;48.128;11.476;2023-06-04T10:10:59;33.50;35.00
12166;DHT22;6146;48.128;11.476;2023-06-04T10:13:28;35.00;32.60
12166;DHT22;6146;48.128;11.476;2023-06-04T10:15:57;34.40;31.50
12166;DHT22;6146;48.128;11.476;2023-06-04T10:18:24;32.20;34.00
12166;DHT22;6146;48.128;11.476;2023-06-04T10:20:53;31.30;36.20
12166;DHT22;6146;48.128;11.476;2023-06-04T10:23:20;31.70;36.20
12166;DHT22;6146;48.128;11.476;2023-06-04T10:25:49;33.10;35.40
12166;DHT22;6146;48.128;11.476;2023-06-04T10:28:15;34.00;33.90
12166;DHT22;6146;48.128;11.476;2023-06-04T10:30:43;33.40;34.10
12166;DHT22;6146;48.128;11.476;2023-06-04T10:33:09;32.40;34.80
12166;DHT22;6146;48.128;11.476;2023-06-04T10:35:35;32.20;35.00
12166;DHT22;6146;48.128;11.476;2023-06-04T10:38:06;33.10;34.90
12166;DHT22;6146;48.128;11.476;2023-06-04T10:40:33;33.40;33.90
12166;DHT22;6146;48.128;11.476;2023-06-04T10:43:11;34.10;31.70
12166;DHT22;6146;48.128;11.476;2023-06-04T10:45:37;35.00;31.60
12166;DHT22;6146;48.128;11.476;2023-06-04T10:48:04;36.00;29.70
12166;DHT22;6146;48.128;11.476;2023-06-04T10:50:32;35.80;31.10
12166;DHT22;6146;48.128;11.476;2023-06-04T10:52:59;36.70;29.30
12166;DHT22;6146;48.128;11.476;2023-06-04T10:55:28;35.60;30.70
12166;DHT22;6146;48.128;11.476;2023-06-04T10:58:01;34.50;32.20
12166;DHT22;6146;48.128;11.476;2023-06-04T11:00:44;33.20;33.10
12166;DHT22;6146;48.128;11.476;2023-06-04T11:03:15;33.40;33.90
12166;DHT22;6146;48.128;11.476;2023-06-04T11:05:45;33.70;32.50
12166;DHT22;6146;48.128;11.476;2023-06-04T11:08:12;33.90;32.90
12166;DHT22;6146;48.128;11.476;2023-06-04T11:10:42;34.00;31.70
12166;DHT22;6146;48.128;11.476;2023-06-04T11:13:08;32.60;33.60
12166;DHT22;6146;48.128;11.476;2023-06-04T11:15:42;32.80;33.70
12166;DHT22;6146;48.128;11.476;2023-06-04T11:18:08;33.20;34.10
12166;DHT22;6146;48.128;11.476;2023-06-04T11:20:33;33.50;32.50
12166;DHT22;6146;48.128;11.476;2023-06-04T11:22:59;33.70;32.70
12166;DHT22;6146;48.128;11.476;2023-06-04T11:25:28;32.70;34.40
12166;DHT22;6146;48.128;11.476;2023-06-04T11:27:55;32.40;35.20
12166;DHT22;6146;48.128;11.476;2023-06-04T11:30:22;32.60;35.00
12166;DHT22;6146;48.128;11.476;2023-06-04T11:32:48;31.50;35.20
12166;DHT22;6146;48.128;11.476;2023-06-04T11:35:14;30.90;35.80
12166;DHT22;6146;48.128;11.476;2023-06-04T11:37:40;31.20;35.90
12166;DHT22;6146;48.128;11.476;2023-06-04T11:40:26;30.70;35.80
12166;DHT22;6146;48.128;11.476;2023-06-04T11:42:52;29.00;38.20
12166;DHT22;6146;48.128;11.476;2023-06-04T11:45:19;28.10;41.20
12166;DHT22;6146;48.128;11.476;2023-06-04T11:47:47;28.10;40.60
12166;DHT22;6146;48.128;11.476;2023-06-04T11:50:12;27.80;41.40
12166;DHT22;6146;48.128;11.476;2023-06-04T11:52:38;28.00;41.40
12166;DHT22;6146;48.128;11.476;2023-06-04T11:55:07;28.30;39.90
12166;DHT22;6146;48.128;11.476;2023-06-04T11:57:33;27.60;41.10
12166;DHT22;6146;48.128;11.476;2023-06-04T12:00:00;27.90;41.30
12166;DHT22;6146;48.128;11.476;2023-06-04T12:02:25;28.40;40.80
12166;DHT22;6146;48.128;11.476;2023-06-04T12:04:51;28.50;40.10
12166;DHT22;6146;48.128;11.476;2023-06-04T12:07:20;28.10;40.80
12166;DHT22;6146;48.128;11.476;2023-06-04T12:09:49;28.10;41.10
12166;DHT22;6146;48.128;11.476;2023-06-04T12:12:21;28.30;40.30
12166;DHT22;6146;48.128;11.476;2023-06-04T12:14:46;28.20;40.10
12166;DHT22;6146;48.128;11.476;2023-06-04T12:17:12;27.50;41.00
12166;DHT22;6146;48.128;11.476;2023-06-04T12:19:48;27.60;41.90
12166;DHT22;6146;48.128;11.476;2023-06-04T12:22:14;28.10;40.40
12166;DHT22;6146;48.128;11.476;2023-06-04T12:24:53;28.50;40.00
12166;DHT22;6146;48.128;11.476;2023-06-04T12:27:20;29.20;39.70
12166;DHT22;6146;48.128;11.476;2023-06-04T12:30:03;29.00;38.80
12166;DHT22;6146;48.128;11.476;2023-06-04T12:32:28;28.50;39.70
12166;DHT22;6146;48.128;11.476;2023-06-04T12:34:55;28.40;40.00
12166;DHT22;6146;48.128;11.476;2023-06-04T12:37:21;28.80;40.20
12166;DHT22;6146;48.128;11.476;2023-06-04T12:39:47;28.90;38.40
12166;DHT22;6146;48.128;11.476;2023-06-04T12:42:13;29.00;37.90
12166;DHT22;6146;48.128;11.476;2023-06-04T12:44:39;28.60;38.70
12166;DHT22;6146;48.128;11.476;2023-06-04T12:47:06;27.30;40.20
12166;DHT22;6146;48.128;11.476;2023-06-04T12:49:32;26.80;42.40
12166;DHT22;6146;48.128;11.476;2023-06-04T12:51:57;26.80;42.10
12166;DHT22;6146;48.128;11.476;2023-06-04T12:54:23;26.70;41.10
12166;DHT22;6146;48.128;11.476;2023-06-04T12:56:49;26.50;40.80
12166;DHT22;6146;48.128;11.476;2023-06-04T12:59:16;26.40;42.30
12166;DHT22;6146;48.128;11.476;2023-06-04T13:01:42;26.50;42.20
12166;DHT22;6146;48.128;11.476;2023-06-04T13:04:07;26.50;41.50
12166;DHT22;6146;48.128;11.476;2023-06-04T13:06:34;26.70;41.30
12166;DHT22;6146;48.128;11.476;2023-06-04T13:09:04;27.00;41.20
12166;DHT22;6146;48.128;11.476;2023-06-04T13:11:36;26.70;40.70
12166;DHT22;6146;48.128;11.476;2023-06-04T13:14:02;26.60;41.40
12166;DHT22;6146;48.128;11.476;2023-06-04T13:16:28;26.90;41.00
12166;DHT22;6146;48.128;11.476;2023-06-04T13:18:53;26.90;40.60
12166;DHT22;6146;48.128;11.476;2023-06-04T13:21:19;27.10;39.10
12166;DHT22;6146;48.128;11.476;2023-06-04T13:23:45;26.70;39.60
12166;DHT22;6146;48.128;11.476;2023-06-04T13:26:10;26.50;40.30
12166;DHT22;6146;48.128;11.476;2023-06-04T13:28:36;26.60;41.50
12166;DHT22;6146;48.128;11.476;2023-06-04T13:31:01;26.80;41.00
12166;DHT22;6146;48.128;11.476;2023-06-04T13:33:27;26.70;41.90
12166;DHT22;6146;48.128;11.476;2023-06-04T13:35:53;26.80;40.80
12166;DHT22;6146;48.128;11.476;2023-06-04T13:38:18;27.00;40.50
12166;DHT22;6146;48.128;11.476;2023-06-04T13:40:44;27.00;40.50
12166;DHT22;6146;48.128;11.476;2023-06-04T13:43:10;26.80;41.20
12166;DHT22;6146;48.128;11.476;2023-06-04T13:45:35;26.80;41.60
12166;DHT22;6146;48.128;11.476;2023-06-04T13:48:01;26.50;42.20
12166;DHT22;6146;48.128;11.476;2023-06-04T13:50:31;26.50;41.20
12166;DHT22;6146;48.128;11.476;2023-06-04T13:52:57;26.70;41.80
12166;DHT22;6146;48.128;11.476;2023-06-04T13:55:22;26.80;40.70
12166;DHT22;6146;48.128;11.476;2023-06-04T13:57:48;26.80;42.60
12166;DHT22;6146;48.128;11.476;2023-06-04T14:00:14;26.80;41.10
12166;DHT22;6146;48.128;11.476;2023-06-04T14:02:40;26.80;41.60
12166;DHT22;6146;48.128;11.476;2023-06-04T14:05:06;27.20;40.80
12166;DHT22;6146;48.128;11.476;2023-06-04T14:07:32;27.30;39.70
12166;DHT22;6146;48.128;11.476;2023-06-04T14:09:57;27.20;41.00
12166;DHT22;6146;48.128;11.476;2023-06-04T14:12:23;27.40;39.40
12166;DHT22;6146;48.128;11.476;2023-06-04T14:14:49;27.50;39.60
12166;DHT22;6146;48.128;11.476;2023-06-04T14:17:15;27.30;39.90
12166;DHT22;6146;48.128;11.476;2023-06-04T14:19:41;27.10;39.10
12166;DHT22;6146;48.128;11.476;2023-06-04T14:22:06;26.80;38.70
12166;DHT22;6146;48.128;11.476;2023-06-04T14:24:32;26.20;41.10
12166;DHT22;6146;48.128;11.476;2023-06-04T14:26:58;25.50;42.50
12166;DHT22;6146;48.128;11.476;2023-06-04T14:29:24;25.30;42.90
12166;DHT22;6146;48.128;11.476;2023-06-04T14:31:49;25.30;43.90
12166;DHT22;6146;48.128;11.476;2023-06-04T14:34:15;25.60;43.10
12166;DHT22;6146;48.128;11.476;2023-06-04T14:36:40;25.80;41.90
12166;DHT22;6146;48.128;11.476;2023-06-04T14:39:06;25.50;43.10
12166;DHT22;6146;48.128;11.476;2023-06-04T14:41:31;24.90;43.70
12166;DHT22;6146;48.128;11.476;2023-06-04T14:43:57;24.70;45.00
12166;DHT22;6146;48.128;11.476;2023-06-04T14:46:23;24.60;43.80
12166;DHT22;6146;48.128;11.476;2023-06-04T14:48:49;24.60;43.90
12166;DHT22;6146;48.128;11.476;2023-06-04T14:51:15;24.60;43.50
12166;DHT22;6146;48.128;11.476;2023-06-04T14:53:40;24.70;44.20
12166;DHT22;6146;48.128;11.476;2023-06-04T14:56:06;24.90;44.00
12166;DHT22;6146;48.128;11.476;2023-06-04T14:58:32;25.10;43.30
12166;DHT22;6146;48.128;11.476;2023-06-04T15:00:59;25.20;42.10
12166;DHT22;6146;48.128;11.476;2023-06-04T15:03:25;25.00;42.70
12166;DHT22;6146;48.128;11.476;2023-06-04T15:05:51;24.90;42.20
12166;DHT22;6146;48.128;11.476;2023-06-04T15:08:17;25.00;43.00
12166;DHT22;6146;48.128;11.476;2023-06-04T15:10:42;24.90;43.10
12166;DHT22;6146;48.128;11.476;2023-06-04T15:13:08;24.90;43.10
12166;DHT22;6146;48.128;11.476;2023-06-04T15:15:34;24.70;44.10
12166;DHT22;6146;48.128;11.476;2023-06-04T15:17:59;24.60;45.60
12166;DHT22;6146;48.128;11.476;2023-06-04T15:20:25;24.60;45.30
12166;DHT22;6146;48.128;11.476;2023-06-04T15:22:53;24.40;44.00
12166;DHT22;6146;48.128;11.476;2023-06-04T15:25:18;24.40;44.90
12166;DHT22;6146;48.128;11.476;2023-06-04T15:27:44;24.40;45.40
12166;DHT22;6146;48.128;11.476;2023-06-04T15:30:09;24.30;45.90
12166;DHT22;6146;48.128;11.476;2023-06-04T15:32:35;24.40;46.10